Time;durP1;ratioP1;P1;durP2;ratioP2;P2;SDS_P1;SDS_P2;PMS_P1;PMS_P2;Temp;Humidity;BMP_temperature;BMP_pressure;BME280_temperature;BME280_humidity;BME280_pressure;Samples;Min_cycle;Max_cycle;Signal;HPM_P1;HPM_P2
2023/07/06 00:01:27;;;;;;;6.40;2.00;;;;;;;15.27;60.77;100560.43;105602;1256;83231;-62
2023/07/06 00:03:56;;;;;;;3.60;1.70;;;;;;;15.20;61.22;100563.04;105592;1254;73786;-62
2023/07/06 00:06:25;;;;;;;3.90;2.20;;;;;;;15.12;61.64;100562.60;105646;1254;69065;-62
2023/07/06 00:08:53;;;;;;;10.70;2.10;;;;;;;15.06;62.06;100564.16;105564;1256;69153;-61
2023/07/06 00:11:21;;;;;;;4.10;2.00;;;;;;;15.00;62.26;100565.39;105533;1256;73369;-61
2023/07/06 00:13:50;;;;;;;2.30;1.50;;;;;;;14.91;62.46;100565.30;105523;1256;83987;-61
2023/07/06 00:16:20;;;;;;;2.40;1.70;;;;;;;14.84;62.28;100566.52;105559;1252;73944;-62
2023/07/06 00:18:49;;;;;;;3.60;2.00;;;;;;;14.82;62.79;100565.77;105581;1254;69144;-61
2023/07/06 00:21:18;;;;;;;4.10;2.10;;;;;;;14.78;63.02;100567.05;105564;1256;69147;-61
2023/07/06 00:23:47;;;;;;;2.60;1.50;;;;;;;14.68;63.09;100565.23;105535;1256;75054;-61
2023/07/06 00:26:20;;;;;;;3.70;1.80;;;;;;;14.58;63.30;100571.44;105555;1256;82452;-61
2023/07/06 00:28:48;;;;;;;3.40;1.60;;;;;;;14.49;63.21;100569.88;105578;1253;72822;-61
2023/07/06 00:31:21;;;;;;;5.70;1.90;;;;;;;14.47;63.22;100572.28;105645;1256;69007;-61
2023/07/06 00:33:52;;;;;;;3.50;1.90;;;;;;;14.43;63.22;100576.54;105549;1256;69082;-61
2023/07/06 00:36:20;;;;;;;4.80;2.20;;;;;;;14.40;63.42;100578.07;105463;1254;75131;-61
2023/07/06 00:38:49;;;;;;;3.80;1.70;;;;;;;14.36;63.66;100577.61;105525;1254;82680;-61
2023/07/06 00:41:18;;;;;;;2.90;1.70;;;;;;;14.28;62.91;100581.31;105596;1256;72735;-61
2023/07/06 00:43:49;;;;;;;3.10;1.90;;;;;;;14.26;63.40;100580.34;105510;1254;69189;-61
2023/07/06 00:46:19;;;;;;;2.90;1.70;;;;;;;14.21;63.44;100579.36;105608;1254;69293;-61
2023/07/06 00:48:49;;;;;;;3.50;1.70;;;;;;;14.18;63.24;100582.88;105463;1254;75140;-62
2023/07/06 00:51:27;;;;;;;4.30;1.90;;;;;;;14.14;63.81;100581.30;105552;1256;82447;-61
2023/07/06 00:53:58;;;;;;;2.20;1.60;;;;;;;14.06;63.93;100582.56;105512;1256;73030;-61
2023/07/06 00:56:29;;;;;;;6.70;2.20;;;;;;;14.00;64.36;100581.82;105539;1254;69040;-61
2023/07/06 00:59:03;;;;;;;4.20;1.90;;;;;;;13.92;64.49;100583.94;105551;1256;69176;-61
2023/07/06 01:01:35;;;;;;;4.00;1.90;;;;;;;13.84;64.67;100587.49;105533;1254;74937;-61
2023/07/06 01:04:04;;;;;;;9.60;2.10;;;;;;;13.79;64.28;100588.80;105550;1256;82608;-61
2023/07/06 01:06:35;;;;;;;5.00;1.80;;;;;;;13.86;63.41;100586.16;105579;1256;73626;-62
2023/07/06 01:09:07;;;;;;;2.50;1.90;;;;;;;14.03;63.24;100587.81;105551;1256;69141;-62
2023/07/06 01:11:38;;;;;;;3.50;2.40;;;;;;;14.13;62.60;100586.82;105591;1256;69122;-62
2023/07/06 01:14:14;;;;;;;4.80;2.10;;;;;;;14.21;62.65;100584.30;105557;1258;73918;-62
2023/07/06 01:17:35;;;;;;;4.30;2.30;;;;;;;14.23;62.72;100582.97;105443;1254;83594;-62
2023/07/06 01:20:20;;;;;;;4.60;2.40;;;;;;;14.16;63.34;100585.25;105550;1256;73963;-62
2023/07/06 01:22:55;;;;;;;3.30;2.10;;;;;;;14.03;63.49;100583.78;105557;1254;69109;-62
2023/07/06 01:26:09;;;;;;;5.10;2.00;;;;;;;13.91;63.79;100586.83;105465;1258;69169;-62
2023/07/06 01:29:01;;;;;;;5.50;2.10;;;;;;;13.77;64.35;100580.45;105540;1253;73883;-62
2023/07/06 01:31:45;;;;;;;3.70;2.30;;;;;;;13.65;64.51;100582.95;105476;1254;82817;-61
2023/07/06 01:34:53;;;;;;;5.00;2.00;;;;;;;13.53;64.79;100580.52;105565;1254;72758;-62
2023/07/06 01:37:26;;;;;;;5.10;2.10;;;;;;;13.44;65.32;100583.58;105551;1254;69155;-61
2023/07/06 01:39:57;;;;;;;4.30;2.20;;;;;;;13.33;65.48;100583.38;105349;1259;69195;-61
2023/07/06 01:42:34;;;;;;;4.30;2.80;;;;;;;13.24;65.77;100586.02;105514;1258;74019;-61
2023/07/06 01:45:09;;;;;;;2.60;1.80;;;;;;;13.16;65.83;100594.63;105313;1259;82743;-61
2023/07/06 01:47:44;;;;;;;3.90;2.00;;;;;;;13.07;65.93;100591.51;105295;1259;73200;-61
2023/07/06 01:50:14;;;;;;;4.00;2.10;;;;;;;12.99;66.23;100593.96;105617;1254;69062;-61
2023/07/06 01:52:57;;;;;;;3.60;2.10;;;;;;;12.91;66.18;100592.75;105374;1258;69236;-61
2023/07/06 01:55:59;;;;;;;4.40;2.20;;;;;;;12.82;66.78;100593.13;105560;1254;73987;-61
2023/07/06 01:58:43;;;;;;;4.10;2.20;;;;;;;12.73;66.99;100595.27;105403;1259;82553;-61
2023/07/06 02:01:16;;;;;;;3.90;1.90;;;;;;;12.65;67.44;100592.27;105440;1258;73980;-61
2023/07/06 02:03:46;;;;;;;4.30;2.00;;;;;;;12.59;67.32;100597.11;105507;1256;69182;-61
2023/07/06 02:06:17;;;;;;;2.80;2.00;;;;;;;12.53;67.83;100598.59;105524;1257;69106;-61
2023/07/06 02:08:47;;;;;;;5.80;2.40;;;;;;;12.46;68.09;100598.85;105469;1257;74705;-61
2023/07/06 02:11:19;;;;;;;3.90;2.10;;;;;;;12.41;67.99;100595.95;105345;1259;82589;-61
2023/07/06 02:13:48;;;;;;;4.40;2.10;;;;;;;12.39;67.80;100601.63;105407;1254;74036;-61
2023/07/06 02:16:17;;;;;;;6.40;2.70;;;;;;;12.48;67.52;100602.65;105511;1256;69179;-61
2023/07/06 02:18:45;;;;;;;4.60;2.40;;;;;;;12.61;67.25;100602.27;105572;1256;69072;-61
2023/07/06 02:21:14;;;;;;;5.10;2.50;;;;;;;12.78;66.94;100596.31;105520;1256;75247;-61
2023/07/06 02:23:43;;;;;;;4.20;2.50;;;;;;;12.95;66.63;100600.12;105529;1254;83449;-61
2023/07/06 02:26:12;;;;;;;5.20;2.50;;;;;;;13.10;66.31;100599.09;105495;1256;72916;-61
2023/07/06 02:28:42;;;;;;;6.80;2.80;;;;;;;13.23;65.98;100592.58;105563;1256;69205;-61
2023/07/06 02:31:10;;;;;;;5.10;2.60;;;;;;;13.28;66.50;100592.19;105473;1253;69178;-61
2023/07/06 02:33:38;;;;;;;7.50;2.50;;;;;;;13.21;66.38;100598.80;105478;1257;73765;-61
2023/07/06 02:36:07;;;;;;;3.10;2.10;;;;;;;13.11;66.69;100604.88;105474;1259;83114;-61
2023/07/06 02:38:36;;;;;;;3.50;2.40;;;;;;;12.99;66.88;100606.97;105513;1259;73812;-61
2023/07/06 02:41:05;;;;;;;3.90;2.50;;;;;;;12.86;67.09;100608.73;105459;1254;69201;-61
2023/07/06 02:43:35;;;;;;;7.20;2.50;;;;;;;12.75;67.71;100612.01;105492;1257;69180;-61
2023/07/06 02:46:04;;;;;;;5.60;2.40;;;;;;;12.67;67.85;100605.52;105472;1254;74913;-61
2023/07/06 02:48:32;;;;;;;5.80;2.40;;;;;;;12.61;68.49;100607.87;105485;1258;83388;-61
2023/07/06 02:51:00;;;;;;;5.50;2.80;;;;;;;12.56;68.73;100612.66;105548;1259;73870;-61
2023/07/06 02:53:29;;;;;;;4.90;2.50;;;;;;;12.51;68.86;100615.83;105497;1258;69074;-61
2023/07/06 02:55:58;;;;;;;5.20;2.60;;;;;;;12.46;69.10;100621.48;105529;1258;69170;-61
2023/07/06 02:58:27;;;;;;;5.30;2.40;;;;;;;12.43;68.99;100623.91;105478;1254;74876;-61
2023/07/06 03:00:55;;;;;;;5.40;2.60;;;;;;;12.39;69.23;100627.02;105556;1258;83799;-61
2023/07/06 03:03:26;;;;;;;2.70;2.20;;;;;;;12.38;69.84;100627.05;105535;1259;73264;-61
2023/07/06 03:05:54;;;;;;;10.40;3.70;;;;;;;12.39;70.29;100631.73;105488;1257;69310;-59
2023/07/06 03:08:23;;;;;;;5.10;2.90;;;;;;;12.41;70.61;100634.49;105571;1254;69384;-59
2023/07/06 03:10:53;;;;;;;4.60;2.60;;;;;;;12.40;70.71;100636.11;105486;1254;73816;-59
2023/07/06 03:13:21;;;;;;;4.60;2.50;;;;;;;12.40;70.54;100638.91;105521;1254;83858;-59
2023/07/06 03:15:50;;;;;;;5.70;2.30;;;;;;;12.40;70.55;100638.53;105527;1254;73721;-59
2023/07/06 03:18:19;;;;;;;4.50;2.40;;;;;;;12.40;70.49;100638.91;105487;1255;69173;-59
2023/07/06 03:20:48;;;;;;;4.50;2.30;;;;;;;12.43;70.64;100639.98;105474;1254;69088;-59
2023/07/06 03:23:18;;;;;;;4.70;2.70;;;;;;;12.46;71.16;100642.14;105531;1259;74576;-59
2023/07/06 03:25:50;;;;;;;3.60;2.40;;;;;;;12.48;71.33;100644.20;105533;1259;83233;-59
2023/07/06 03:28:20;;;;;;;5.50;3.00;;;;;;;12.50;71.44;100639.35;105527;1257;72000;-59
2023/07/06 03:30:56;;;;;;;3.60;2.10;;;;;;;12.55;71.02;100642.50;105505;1254;69173;-59
2023/07/06 03:33:24;;;;;;;7.10;2.20;;;;;;;12.64;70.27;100643.86;105480;1259;69186;-59
2023/07/06 03:35:58;;;;;;;5.80;2.80;;;;;;;12.80;69.68;100646.19;105554;1257;74718;-59
2023/07/06 03:38:27;;;;;;;4.80;2.80;;;;;;;12.93;69.28;100652.27;105578;1256;83365;-59
2023/07/06 03:40:56;;;;;;;5.40;2.70;;;;;;;13.04;68.85;100647.08;105610;1257;73829;-59
2023/07/06 03:43:25;;;;;;;5.90;2.50;;;;;;;13.14;68.65;100648.05;105560;1256;69208;-59
2023/07/06 03:45:54;;;;;;;6.30;2.70;;;;;;;13.22;68.45;100649.11;105501;1259;69090;-59
2023/07/06 03:48:23;;;;;;;5.70;2.60;;;;;;;13.30;68.84;100651.77;105556;1254;74999;-59
2023/07/06 03:50:52;;;;;;;4.30;2.60;;;;;;;13.36;68.66;100656.92;105495;1254;83890;-59
2023/07/06 03:53:21;;;;;;;5.50;2.30;;;;;;;13.45;68.31;100659.20;105543;1256;73873;-59
2023/07/06 03:55:53;;;;;;;6.10;2.90;;;;;;;13.53;68.99;100662.70;105557;1257;69064;-59
2023/07/06 03:58:22;;;;;;;4.30;2.80;;;;;;;13.63;69.42;100665.40;105612;1252;69161;-59
2023/07/06 04:00:50;;;;;;;3.50;2.50;;;;;;;13.68;69.98;100666.05;105518;1254;74822;-59
2023/07/06 04:03:19;;;;;;;5.20;2.60;;;;;;;13.70;69.96;100664.91;105528;1256;83284;-59
2023/07/06 04:05:47;;;;;;;3.90;2.50;;;;;;;13.72;70.23;100670.27;105582;1254;72580;-59
2023/07/06 04:08:20;;;;;;;4.90;2.90;;;;;;;13.74;70.38;100673.13;105501;1256;69172;-59
2023/07/06 04:10:48;;;;;;;3.90;2.80;;;;;;;13.81;70.84;100674.77;105539;1254;69051;-59
2023/07/06 04:13:17;;;;;;;8.10;3.10;;;;;;;13.88;70.90;100671.78;105560;1257;74602;-59
2023/07/06 04:15:47;;;;;;;5.30;3.00;;;;;;;13.96;71.21;100673.02;105660;1256;83407;-59
2023/07/06 04:18:15;;;;;;;5.20;3.40;;;;;;;14.02;71.41;100669.17;105543;1257;73921;-60
2023/07/06 04:20:44;;;;;;;4.80;2.70;;;;;;;14.14;71.52;100670.05;105509;1256;69513;-59
2023/07/06 04:23:13;;;;;;;3.20;2.00;;;;;;;14.26;70.98;100669.45;105555;1254;69059;-59
2023/07/06 04:25:41;;;;;;;5.10;2.40;;;;;;;14.41;70.43;100669.29;105527;1254;74656;-59
2023/07/06 04:28:12;;;;;;;3.90;2.60;;;;;;;14.56;69.53;100668.73;105554;1256;83290;-59
2023/07/06 04:30:42;;;;;;;6.10;2.30;;;;;;;14.71;68.99;100670.47;105569;1254;73899;-59
2023/07/06 04:33:16;;;;;;;5.30;2.60;;;;;;;14.86;68.69;100672.20;105540;1256;69214;-59
2023/07/06 04:35:51;;;;;;;5.30;2.60;;;;;;;15.01;68.10;100674.22;105563;1256;69227;-59
2023/07/06 04:38:21;;;;;;;4.00;2.60;;;;;;;15.18;67.72;100672.48;105587;1257;73937;-59
2023/07/06 04:40:51;;;;;;;6.20;3.30;;;;;;;15.32;67.43;100675.61;105581;1256;83481;-59
2023/07/06 04:43:19;;;;;;;4.00;2.90;;;;;;;15.48;66.93;100680.80;105588;1254;72693;-59
2023/07/06 04:45:48;;;;;;;4.60;3.00;;;;;;;15.62;66.34;100684.23;105562;1252;69220;-59
2023/07/06 04:48:16;;;;;;;4.90;3.00;;;;;;;15.77;65.95;100686.29;105530;1257;69086;-59
2023/07/06 04:50:46;;;;;;;5.00;3.10;;;;;;;15.93;65.35;100691.77;105564;1257;75246;-59
2023/07/06 04:53:16;;;;;;;8.70;3.10;;;;;;;16.10;65.17;100696.67;105570;1254;83257;-59
2023/07/06 04:55:45;;;;;;;5.30;2.70;;;;;;;16.26;64.29;100698.93;105590;1253;72626;-59
2023/07/06 04:58:14;;;;;;;4.60;2.80;;;;;;;16.42;64.32;100705.44;105579;1256;69057;-60
2023/07/06 05:00:45;;;;;;;3.50;2.50;;;;;;;16.56;63.73;100707.11;105539;1252;69099;-59
2023/07/06 05:03:14;;;;;;;5.40;3.00;;;;;;;16.69;63.51;100706.73;105575;1254;73661;-59
2023/07/06 05:05:45;;;;;;;4.70;2.80;;;;;;;16.81;62.94;100703.25;105587;1254;82478;-59
2023/07/06 05:08:19;;;;;;;3.90;2.60;;;;;;;16.92;62.84;100708.79;105555;1256;73907;-60
2023/07/06 05:10:50;;;;;;;3.60;2.30;;;;;;;17.02;62.22;100706.64;105535;1253;69080;-60
2023/07/06 05:13:21;;;;;;;6.10;2.90;;;;;;;17.10;61.79;100704.39;105537;1256;69154;-60
2023/07/06 05:15:51;;;;;;;4.20;2.80;;;;;;;17.16;61.78;100706.14;105555;1257;75743;-60
2023/07/06 05:18:20;;;;;;;6.40;3.30;;;;;;;17.21;61.50;100710.77;105589;1257;81490;-61
2023/07/06 05:20:50;;;;;;;4.80;2.80;;;;;;;17.24;61.48;100712.56;105515;1256;73856;-60
2023/07/06 05:23:20;;;;;;;7.30;3.10;;;;;;;17.25;61.44;100710.89;105563;1257;69150;-64
2023/07/06 05:25:54;;;;;;;6.00;2.90;;;;;;;17.27;61.70;100712.55;105598;1256;69193;-62
2023/07/06 05:28:23;;;;;;;4.30;2.90;;;;;;;17.26;61.18;100709.80;105693;1254;75517;-63
2023/07/06 05:30:51;;;;;;;5.50;2.70;;;;;;;17.25;60.88;100711.77;105774;1257;83825;-63
2023/07/06 05:33:20;;;;;;;4.90;3.10;;;;;;;17.24;60.65;100709.40;105807;1256;73667;-63
2023/07/06 05:35:49;;;;;;;3.90;3.10;;;;;;;17.24;60.40;100716.61;105626;1254;69111;-61
2023/07/06 05:38:20;;;;;;;5.40;2.50;;;;;;;17.25;60.14;100713.73;105643;1257;69182;-62
2023/07/06 05:40:49;;;;;;;5.70;2.50;;;;;;;17.26;59.92;100719.48;105730;1254;74582;-62
2023/07/06 05:43:19;;;;;;;6.10;3.00;;;;;;;17.29;59.90;100722.66;105588;1261;83360;-63
2023/07/06 05:45:47;;;;;;;5.40;3.00;;;;;;;17.34;59.76;100726.98;105597;1257;73947;-62
2023/07/06 05:48:18;;;;;;;5.70;3.10;;;;;;;17.37;60.07;100730.29;105586;1256;69952;-62
2023/07/06 05:50:47;;;;;;;6.50;2.90;;;;;;;17.44;59.92;100732.73;105657;1253;69157;-59
2023/07/06 05:53:15;;;;;;;4.00;2.70;;;;;;;17.49;59.46;100736.67;105707;1256;75283;-65
2023/07/06 05:55:43;;;;;;;7.10;3.10;;;;;;;17.52;59.07;100736.45;105729;1257;83324;-60
2023/07/06 05:58:13;;;;;;;6.20;2.70;;;;;;;17.59;59.06;100744.35;105630;1257;73422;-60
2023/07/06 06:00:41;;;;;;;5.00;3.20;;;;;;;17.68;59.11;100750.38;105669;1253;69112;-60
2023/07/06 06:03:11;;;;;;;6.00;3.10;;;;;;;17.75;58.82;100743.90;105691;1256;69144;-59
2023/07/06 06:05:40;;;;;;;5.10;2.70;;;;;;;17.86;59.48;100741.16;105756;1256;74847;-61
2023/07/06 06:08:08;;;;;;;5.80;3.20;;;;;;;17.94;60.10;100746.64;105591;1256;83341;-61
2023/07/06 06:10:36;;;;;;;4.60;3.20;;;;;;;18.01;60.42;100745.86;105629;1254;73632;-61
2023/07/06 06:13:05;;;;;;;7.20;3.30;;;;;;;18.09;60.86;100754.02;105546;1256;69225;-60
2023/07/06 06:15:33;;;;;;;5.90;3.10;;;;;;;18.20;60.73;100748.02;105646;1257;69814;-61
2023/07/06 06:18:03;;;;;;;5.80;3.70;;;;;;;18.26;60.77;100741.78;105695;1254;74550;-61
2023/07/06 06:20:32;;;;;;;5.70;2.70;;;;;;;18.33;61.01;100739.43;105737;1256;83542;-61
2023/07/06 06:23:00;;;;;;;5.50;3.60;;;;;;;18.38;60.83;100742.99;105657;1254;73903;-61
2023/07/06 06:25:29;;;;;;;7.30;3.40;;;;;;;18.44;61.08;100745.27;105888;1254;69166;-61
2023/07/06 06:27:57;;;;;;;5.00;3.20;;;;;;;18.54;61.37;100748.02;105783;1256;69140;-61
2023/07/06 06:30:26;;;;;;;6.20;3.10;;;;;;;18.59;61.09;100747.33;105675;1254;74724;-61
2023/07/06 06:32:56;;;;;;;4.10;2.60;;;;;;;18.61;61.11;100745.92;105768;1254;83183;-61
2023/07/06 06:35:32;;;;;;;5.20;3.00;;;;;;;18.65;61.33;100748.50;105603;1254;72678;-61
2023/07/06 06:38:05;;;;;;;5.20;3.60;;;;;;;18.70;61.17;100752.23;105671;1257;69117;-61
2023/07/06 06:40:36;;;;;;;7.80;3.40;;;;;;;18.70;61.09;100752.04;105677;1257;69802;-60
2023/07/06 06:43:05;;;;;;;7.30;3.30;;;;;;;18.70;60.86;100754.55;105663;1257;73776;-60
2023/07/06 06:45:33;;;;;;;7.00;3.40;;;;;;;18.68;60.55;100757.33;105645;1254;83525;-61
2023/07/06 06:48:02;;;;;;;7.20;3.20;;;;;;;18.66;60.37;100759.91;105584;1254;72779;-60
2023/07/06 06:50:30;;;;;;;8.40;3.70;;;;;;;18.64;60.11;100760.42;105663;1254;69052;-61
2023/07/06 06:52:59;;;;;;;7.00;3.00;;;;;;;18.65;59.97;100759.65;105985;1256;69186;-61
2023/07/06 06:55:28;;;;;;;7.80;3.20;;;;;;;18.68;59.83;100759.64;105865;1257;73865;-61
2023/07/06 06:57:56;;;;;;;5.70;3.10;;;;;;;18.72;59.57;100757.06;105638;1257;83508;-61
2023/07/06 07:00:24;;;;;;;7.80;3.00;;;;;;;18.78;59.26;100757.60;105712;1257;73890;-61
2023/07/06 07:02:53;;;;;;;6.60;3.20;;;;;;;18.84;59.30;100758.27;105694;1254;69185;-64
2023/07/06 07:05:22;;;;;;;7.80;3.10;;;;;;;18.89;59.07;100760.55;105771;1256;69073;-64
2023/07/06 07:07:50;;;;;;;7.20;3.10;;;;;;;18.87;58.03;100762.63;105778;1256;74606;-64
2023/07/06 07:10:22;;;;;;;6.50;3.10;;;;;;;18.83;57.71;100761.38;105574;1256;83937;-64
2023/07/06 07:12:50;;;;;;;4.40;3.30;;;;;;;18.83;58.13;100761.19;105802;1255;72789;-64
2023/07/06 07:15:19;;;;;;;5.80;2.90;;;;;;;18.89;58.74;100766.96;105596;1254;69169;-64
2023/07/06 07:17:47;;;;;;;5.80;3.20;;;;;;;18.97;59.04;100765.57;105642;1257;69151;-63
2023/07/06 07:20:16;;;;;;;5.70;3.10;;;;;;;19.04;59.19;100767.55;105808;1257;74611;-65
2023/07/06 07:22:44;;;;;;;7.10;3.50;;;;;;;19.10;59.39;100771.38;105730;1257;83673;-64
2023/07/06 07:25:17;;;;;;;6.90;3.50;;;;;;;19.17;59.37;100770.76;105678;1256;72938;-65
2023/07/06 07:27:46;;;;;;;10.70;3.30;;;;;;;19.24;59.05;100767.14;105568;1256;69195;-66
2023/07/06 07:30:15;;;;;;;7.60;3.60;;;;;;;19.33;59.19;100766.88;105501;1257;160392;-66
2023/07/06 07:32:47;;;;;;;9.10;3.30;;;;;;;19.43;58.71;100764.57;105543;1254;74876;-65
2023/07/06 07:35:16;;;;;;;4.30;3.00;;;;;;;19.51;58.56;100765.64;105516;1256;83095;-65
2023/07/06 07:37:50;;;;;;;7.10;3.20;;;;;;;19.58;57.76;100765.14;105492;1256;73770;-65
2023/07/06 07:40:19;;;;;;;7.90;2.70;;;;;;;19.65;56.90;100764.53;105471;1254;69211;-65
2023/07/06 07:42:47;;;;;;;8.80;2.60;;;;;;;19.69;56.54;100760.36;105624;1257;69192;-65
2023/07/06 07:45:18;;;;;;;4.20;2.50;;;;;;;19.80;56.56;100762.61;105563;1257;74836;-67
2023/07/06 07:47:47;;;;;;;6.20;2.90;;;;;;;19.95;56.12;100758.91;105567;1256;83902;-46
2023/07/06 07:50:15;;;;;;;7.20;3.20;;;;;;;20.04;55.80;100760.70;105639;1252;72653;-46
2023/07/06 07:52:44;;;;;;;5.60;3.00;;;;;;;20.14;55.04;100761.46;105520;1257;70501;-46
2023/07/06 07:55:12;;;;;;;12.10;3.80;;;;;;;20.21;54.85;100764.11;105485;1254;69881;-46
2023/07/06 07:57:41;;;;;;;6.60;2.70;;;;;;;20.26;54.06;100766.25;105587;1254;74573;-46
2023/07/06 08:00:10;;;;;;;6.60;2.90;;;;;;;20.28;53.45;100764.35;105548;1256;83409;-45
2023/07/06 08:02:41;;;;;;;4.30;2.60;;;;;;;20.32;53.09;100761.38;105561;1257;73851;-45
2023/07/06 08:05:10;;;;;;;5.20;2.80;;;;;;;20.36;52.75;100766.04;105583;1256;69996;-47
2023/07/06 08:07:38;;;;;;;7.40;3.10;;;;;;;20.41;52.32;100765.91;105549;1257;69944;-46
2023/07/06 08:10:08;;;;;;;7.40;2.90;;;;;;;20.43;51.80;100762.73;105575;1254;74807;-47
2023/07/06 08:12:37;;;;;;;3.60;2.30;;;;;;;20.44;51.76;100761.75;105519;1263;83314;-46
2023/07/06 08:15:05;;;;;;;5.20;2.60;;;;;;;20.46;51.55;100765.15;109349;1254;73678;-47
2023/07/06 08:17:36;;;;;;;6.60;2.80;;;;;;;20.49;51.16;100761.57;109351;1253;68107;-47
2023/07/06 08:20:11;;;;;;;6.00;2.80;;;;;;;20.54;50.75;100762.68;109392;1253;67629;-48
2023/07/06 08:23:01;;;;;;;6.00;2.70;;;;;;;20.64;50.97;100764.23;109350;1252;75020;-47
2023/07/06 08:25:37;;;;;;;12.50;3.40;;;;;;;20.71;50.48;100760.31;109355;1253;83614;-48
2023/07/06 08:28:07;;;;;;;5.40;2.30;;;;;;;20.76;50.13;100757.84;108996;1254;73768;-47
2023/07/06 08:30:37;;;;;;;4.00;2.40;;;;;;;20.84;50.25;100761.91;105554;1254;69972;-48
2023/07/06 08:33:09;;;;;;;4.70;2.70;;;;;;;20.93;49.57;100757.46;105576;1259;69918;-46
2023/07/06 08:35:44;;;;;;;6.00;3.10;;;;;;;20.98;49.14;100747.74;105605;1255;74818;-46
2023/07/06 08:38:13;;;;;;;5.10;2.50;;;;;;;21.05;49.33;100748.95;105597;1256;83551;-45
2023/07/06 08:40:42;;;;;;;4.60;1.90;;;;;;;21.17;49.14;100753.02;105604;1257;73982;-46
2023/07/06 08:43:34;;;;;;;2.80;1.80;;;;;;;21.23;48.36;100751.30;105570;1256;70009;-46
2023/07/06 08:46:04;;;;;;;2.90;1.90;;;;;;;21.32;48.10;100748.51;105606;1257;69896;-47
2023/07/06 08:48:36;;;;;;;3.50;2.20;;;;;;;21.42;47.79;100753.84;105565;1257;73885;-47
2023/07/06 08:51:30;;;;;;;3.80;1.90;;;;;;;21.47;47.48;100754.67;105586;1256;83379;-49
2023/07/06 08:54:01;;;;;;;13.50;2.50;;;;;;;21.54;46.98;100753.96;105542;1257;73439;-46
2023/07/06 08:56:36;;;;;;;4.90;2.10;;;;;;;21.61;47.07;100752.64;105587;1257;69934;-48
2023/07/06 08:59:13;;;;;;;3.60;2.40;;;;;;;21.70;46.55;100753.61;105463;1257;69995;-48
2023/07/06 09:01:42;;;;;;;5.10;2.00;;;;;;;21.77;46.03;100748.00;105528;1257;73597;-47
2023/07/06 09:04:16;;;;;;;5.20;2.20;;;;;;;21.85;46.04;100745.48;105554;1256;82541;-47
2023/07/06 09:06:48;;;;;;;4.00;1.80;;;;;;;21.91;45.53;100746.93;105503;1257;73646;-48
2023/07/06 09:09:17;;;;;;;5.50;2.00;;;;;;;21.94;45.34;100745.66;105567;1257;69980;-47
2023/07/06 09:11:47;;;;;;;4.70;2.10;;;;;;;22.01;45.11;100747.52;105559;1266;69976;-48
2023/07/06 09:14:19;;;;;;;5.80;2.10;;;;;;;22.10;45.03;100746.89;105507;1257;73839;-48
2023/07/06 09:16:55;;;;;;;8.10;2.30;;;;;;;22.21;44.57;100740.88;105577;1266;83557;-47
2023/07/06 09:19:25;;;;;;;4.60;2.50;;;;;;;22.27;44.56;100739.15;105569;1254;72360;-46
2023/07/06 09:21:54;;;;;;;5.60;2.30;;;;;;;22.32;44.28;100745.33;105555;1255;69915;-47
2023/07/06 09:24:29;;;;;;;2.80;1.90;;;;;;;22.38;43.96;100739.49;105530;1254;69877;-46
2023/07/06 09:26:59;;;;;;;4.80;1.80;;;;;;;22.49;44.12;100738.34;105562;1260;74662;-47
2023/07/06 09:29:33;;;;;;;6.60;2.40;;;;;;;22.65;43.97;100740.41;105586;1258;83340;-47
2023/07/06 09:32:20;;;;;;;17.70;3.80;;;;;;;22.74;43.64;100740.13;105595;1258;73715;-48
2023/07/06 09:34:50;;;;;;;3.80;2.20;;;;;;;22.84;43.31;100739.47;105545;1258;69988;-48
2023/07/06 09:37:20;;;;;;;3.80;1.90;;;;;;;22.94;43.07;100745.02;105491;1256;70095;-46
2023/07/06 09:40:03;;;;;;;5.70;2.00;;;;;;;23.10;43.05;100740.50;105485;1257;74855;-48
2023/07/06 09:42:49;;;;;;;7.60;2.10;;;;;;;23.31;42.74;100747.13;105520;1260;83603;-48
2023/07/06 09:45:25;;;;;;;6.20;2.40;;;;;;;23.31;42.46;100751.23;105448;1255;72761;-48
2023/07/06 09:48:01;;;;;;;5.90;2.30;;;;;;;23.29;41.95;100749.70;105461;1254;69948;-48
2023/07/06 09:50:35;;;;;;;4.10;1.90;;;;;;;23.36;41.91;100755.27;105521;1255;70028;-48
2023/07/06 09:53:07;;;;;;;4.20;2.10;;;;;;;23.42;41.65;100747.39;105506;1257;73535;-47
2023/07/06 09:55:36;;;;;;;2.80;1.70;;;;;;;23.48;41.70;100746.92;105543;1254;83285;-48
2023/07/06 09:58:19;;;;;;;4.10;1.80;;;;;;;23.63;41.65;100752.39;105532;1255;73477;-47
2023/07/06 10:00:52;;;;;;;3.60;2.10;;;;;;;23.77;41.32;100750.65;105495;1257;69884;-47
2023/07/06 10:03:38;;;;;;;5.00;2.20;;;;;;;24.01;41.26;100745.73;105545;1257;69963;-47
2023/07/06 10:06:28;;;;;;;2.80;1.90;;;;;;;24.29;41.22;100742.34;105497;1254;73883;-47
2023/07/06 10:09:14;;;;;;;6.70;1.90;;;;;;;24.52;40.68;100745.15;105505;1259;83484;-47
2023/07/06 10:11:55;;;;;;;7.90;2.30;;;;;;;24.83;40.78;100742.30;105480;1256;73423;-48
2023/07/06 10:14:28;;;;;;;4.60;1.60;;;;;;;25.23;40.39;100744.56;105495;1257;69972;-48
2023/07/06 10:17:07;;;;;;;3.70;1.80;;;;;;;25.50;39.84;100749.48;105491;1254;69823;-48
2023/07/06 10:19:40;;;;;;;4.30;1.80;;;;;;;25.77;39.46;100747.83;105524;1258;74844;-48
2023/07/06 10:22:20;;;;;;;2.30;1.60;;;;;;;25.85;38.62;100746.61;105504;1257;82988;-47
2023/07/06 10:25:01;;;;;;;7.10;1.80;;;;;;;25.92;38.78;100742.85;105484;1254;72715;-47
2023/07/06 10:27:33;;;;;;;3.90;1.80;;;;;;;25.93;38.40;100744.77;105441;1257;70005;-47
2023/07/06 10:30:08;;;;;;;3.70;1.90;;;;;;;25.80;38.13;100746.14;105517;1253;69960;-47
2023/07/06 10:32:40;;;;;;;4.00;1.60;;;;;;;25.90;38.22;100746.08;105510;1257;74566;-49
2023/07/06 10:35:14;;;;;;;4.50;1.50;;;;;;;25.96;37.87;100752.27;105502;1257;83714;-48
2023/07/06 10:37:43;;;;;;;3.50;1.70;;;;;;;25.86;37.32;100752.00;105548;1254;74232;-47
2023/07/06 10:40:26;;;;;;;2.80;1.60;;;;;;;25.66;37.16;100755.87;105584;1254;69922;-47
2023/07/06 10:43:13;;;;;;;2.80;1.40;;;;;;;25.37;37.08;100752.11;105519;1254;69913;-49
2023/07/06 10:45:48;;;;;;;3.40;1.60;;;;;;;25.14;37.09;100754.13;105572;1254;74800;-47
2023/07/06 10:48:34;;;;;;;4.50;1.90;;;;;;;24.97;37.32;100750.82;105579;1257;83592;-47
2023/07/06 10:51:22;;;;;;;2.60;1.80;;;;;;;24.83;37.26;100756.58;105564;1257;73234;-48
2023/07/06 10:54:17;;;;;;;14.70;2.90;;;;;;;24.77;37.56;100756.98;105579;1258;69943;-47
2023/07/06 10:57:02;;;;;;;3.90;2.30;;;;;;;24.89;38.13;100759.27;105590;1254;69875;-47
2023/07/06 10:59:39;;;;;;;5.30;1.80;;;;;;;24.89;38.18;100767.11;105573;1255;73825;-47
2023/07/06 11:02:33;;;;;;;3.10;2.10;;;;;;;24.80;38.19;100760.42;105571;1254;82383;-48
2023/07/06 11:05:07;;;;;;;3.80;1.70;;;;;;;24.77;38.38;100762.17;105560;1254;73561;-48
2023/07/06 11:07:43;;;;;;;9.20;2.20;;;;;;;24.76;38.33;100765.83;105576;1256;69992;-47
2023/07/06 11:10:15;;;;;;;4.10;2.00;;;;;;;24.72;38.37;100766.20;105571;1257;69969;-47
2023/07/06 11:12:54;;;;;;;4.30;2.00;;;;;;;24.68;38.25;100764.89;105590;1254;73850;-48
2023/07/06 11:15:35;;;;;;;6.10;2.00;;;;;;;24.67;38.33;100762.83;105562;1257;83367;-47
2023/07/06 11:18:18;;;;;;;3.20;2.00;;;;;;;24.75;38.47;100765.54;105586;1254;73666;-46
2023/07/06 11:21:08;;;;;;;7.00;2.30;;;;;;;24.95;38.61;100763.95;105555;1254;69969;-47
2023/07/06 11:23:48;;;;;;;4.00;2.10;;;;;;;25.14;38.45;100765.17;105578;1257;69866;-47
2023/07/06 11:26:27;;;;;;;;;;;;;;;25.26;38.08;100766.56;105484;1254;75072;-47
2023/07/06 11:28:55;;;;;;;3.30;1.60;;;;;;;25.34;37.97;100772.23;105595;1257;83311;-47
2023/07/06 11:32:06;;;;;;;2.70;1.80;;;;;;;25.37;37.73;100766.08;105551;1256;73327;-48
2023/07/06 11:34:56;;;;;;;4.90;1.80;;;;;;;25.50;37.77;100771.87;105438;1257;70030;-48
2023/07/06 11:37:34;;;;;;;3.60;1.90;;;;;;;25.59;37.54;100775.48;105531;1257;70009;-48
2023/07/06 11:40:46;;;;;;;3.00;1.80;;;;;;;25.63;37.19;100777.79;105550;1257;75585;-48
2023/07/06 11:43:49;;;;;;;4.00;1.40;;;;;;;25.92;37.23;100781.50;105567;1257;83595;-48